Time;durP1;ratioP1;P1;durP2;ratioP2;P2;SDS_P1;SDS_P2;PMS_P1;PMS_P2;Temp;Humidity;BMP_temperature;BMP_pressure;BME280_temperature;BME280_humidity;BME280_pressure;Samples;Min_cycle;Max_cycle;Signal;HPM_P1;HPM_P2
2022/10/08 00:00:57;;;;;;;14.15;8.57;;;15.00;99.90;;;;;;5051976;28;20033;-81
2022/10/08 00:03:26;;;;;;;12.52;9.82;;;15.00;99.90;;;;;;5052400;28;20090;-82
2022/10/08 00:06:00;;;;;;;13.88;9.60;;;15.00;99.90;;;;;;5052268;28;20426;-80
2022/10/08 00:08:28;;;;;;;14.48;8.70;;;14.90;99.90;;;;;;5053421;28;20059;-81
2022/10/08 00:11:03;;;;;;;11.65;9.25;;;14.90;99.90;;;;;;5056176;28;20028;-81
2022/10/08 00:13:39;;;;;;;12.90;9.38;;;14.90;99.90;;;;;;5056357;28;20029;-81
2022/10/08 00:16:19;;;;;;;11.85;9.80;;;14.80;99.90;;;;;;5056240;28;20082;-82
2022/10/08 00:18:46;;;;;;;12.98;9.57;;;14.80;99.90;;;;;;5056682;28;20037;-80
2022/10/08 00:21:19;;;;;;;14.75;10.13;;;14.80;99.90;;;;;;5056401;28;20389;-80
2022/10/08 00:23:46;;;;;;;12.52;9.00;;;14.80;99.90;;;;;;5056521;28;20029;-81
2022/10/08 00:26:13;;;;;;;12.35;9.00;;;14.80;99.90;;;;;;5056311;28;20028;-81
2022/10/08 00:28:42;;;;;;;14.07;9.40;;;14.70;99.90;;;;;;5056174;28;20424;-81
2022/10/08 00:31:11;;;;;;;13.70;9.70;;;14.70;99.90;;;;;;5055582;28;20110;-81
2022/10/08 00:33:37;;;;;;;12.88;9.25;;;14.70;99.90;;;;;;5056212;28;20044;-80
2022/10/08 00:36:04;;;;;;;17.08;9.18;;;14.70;99.90;;;;;;5054469;28;20465;-81
2022/10/08 00:38:29;;;;;;;11.80;9.73;;;14.70;99.90;;;;;;5056053;28;20037;-82
2022/10/08 00:40:55;;;;;;;13.43;9.73;;;14.70;99.90;;;;;;5055659;28;20025;-81
2022/10/08 00:43:43;;;;;;;17.23;8.85;;;14.60;99.90;;;;;;5055893;28;20439;-82
2022/10/08 00:46:36;;;;;;;12.45;9.98;;;14.60;99.90;;;;;;5055497;28;20416;-81
2022/10/08 00:49:15;;;;;;;13.60;9.75;;;14.60;99.90;;;;;;5052172;28;20056;-82
2022/10/08 00:51:43;;;;;;;14.82;9.68;;;14.60;99.90;;;;;;5055694;28;20116;-81
2022/10/08 00:54:11;;;;;;;13.82;10.15;;;14.50;99.90;;;;;;5054200;28;20033;-81
2022/10/08 00:56:39;;;;;;;12.75;9.55;;;14.50;99.90;;;;;;5055778;28;20025;-82
2022/10/08 00:59:07;;;;;;;12.98;9.68;;;14.50;99.90;;;;;;5055343;28;20102;-82
2022/10/08 01:01:33;;;;;;;10.63;9.00;;;14.50;99.90;;;;;;5055915;28;20484;-82
2022/10/08 01:04:03;;;;;;;11.43;8.82;;;14.40;99.90;;;;;;5054308;28;20134;-81
2022/10/08 01:06:37;;;;;;;14.60;9.30;;;14.40;99.90;;;;;;5055848;28;20033;-82
2022/10/08 01:09:14;;;;;;;16.30;10.52;;;14.40;99.90;;;;;;5056082;28;20025;-82
2022/10/08 01:12:01;;;;;;;12.95;9.32;;;14.40;99.90;;;;;;5056409;28;20039;-82
2022/10/08 01:14:50;;;;;;;12.48;9.18;;;14.40;99.90;;;;;;5056361;28;20113;-82
2022/10/08 01:17:26;;;;;;;13.48;9.75;;;14.40;99.90;;;;;;5034830;28;20037;-83
2022/10/08 01:20:17;;;;;;;16.27;9.23;;;14.40;99.90;;;;;;5055120;28;20374;-75
2022/10/08 01:22:57;;;;;;;12.23;8.73;;;14.40;99.90;;;;;;5057306;28;20037;-82
2022/10/08 01:26:02;;;;;;;14.82;8.77;;;14.40;99.90;;;;;;5058495;28;20025;-82
2022/10/08 01:28:31;;;;;;;12.95;8.35;;;14.30;99.90;;;;;;5047733;28;20040;-82
2022/10/08 01:31:29;;;;;;;12.27;8.30;;;14.30;99.90;;;;;;5060824;28;20021;-82
2022/10/08 01:34:04;;;;;;;15.30;8.70;;;14.30;99.90;;;;;;5064238;28;20029;-81
2022/10/08 01:36:38;;;;;;;11.20;8.60;;;14.30;99.90;;;;;;5065512;28;20093;-81
2022/10/08 01:39:07;;;;;;;13.68;8.70;;;14.30;99.90;;;;;;5064541;28;20033;-82
2022/10/08 01:41:33;;;;;;;13.73;8.40;;;14.30;99.90;;;;;;5065378;28;20489;-82
2022/10/08 01:44:06;;;;;;;14.63;9.25;;;14.30;99.90;;;;;;5056686;28;20366;-82
2022/10/08 01:46:33;;;;;;;11.50;8.18;;;14.30;99.90;;;;;;5056198;28;20099;-83
2022/10/08 01:49:06;;;;;;;18.95;8.15;;;14.30;99.90;;;;;;5055432;28;20041;-83
2022/10/08 01:51:35;;;;;;;11.38;8.35;;;14.20;99.90;;;;;;5055482;28;20488;-83
2022/10/08 01:54:05;;;;;;;12.18;8.32;;;14.30;99.90;;;;;;5054335;28;20492;-84
2022/10/08 01:56:33;;;;;;;12.30;8.30;;;14.30;99.90;;;;;;5055006;28;20033;-83
2022/10/08 01:59:21;;;;;;;14.73;8.98;;;14.30;99.90;;;;;;5053755;28;20052;-83
2022/10/08 02:01:59;;;;;;;14.43;8.85;;;14.30;99.90;;;;;;5054957;28;20025;-83
2022/10/08 02:04:34;;;;;;;10.65;8.00;;;14.20;99.90;;;;;;5054945;28;20032;-82
2022/10/08 02:07:14;;;;;;;12.68;9.93;;;14.20;99.90;;;;;;5056415;28;20457;-83
2022/10/08 02:09:44;;;;;;;17.88;9.63;;;14.10;99.90;;;;;;5054743;28;20029;-83
2022/10/08 02:12:11;;;;;;;12.68;9.38;;;14.10;99.90;;;;;;5054078;28;20029;-84
2022/10/08 02:14:41;;;;;;;13.65;10.23;;;14.10;99.90;;;;;;5054442;28;20029;-84
2022/10/08 02:17:22;;;;;;;14.02;10.00;;;14.10;99.90;;;;;;5053886;28;20017;-83
2022/10/08 02:19:57;;;;;;;16.63;10.40;;;14.10;99.90;;;;;;5054253;28;20037;-82
2022/10/08 02:22:35;;;;;;;13.80;10.63;;;14.00;99.90;;;;;;5054796;28;20033;-83
2022/10/08 02:25:18;;;;;;;14.98;11.38;;;14.00;99.90;;;;;;5053660;28;20541;-82
2022/10/08 02:27:50;;;;;;;16.02;10.65;;;14.00;99.90;;;;;;5054050;28;20428;-83
2022/10/08 02:30:16;;;;;;;12.75;10.18;;;14.00;99.90;;;;;;5053363;28;20033;-83
2022/10/08 02:32:49;;;;;;;16.92;11.27;;;13.90;99.90;;;;;;5053184;28;20118;-84
2022/10/08 02:35:29;;;;;;;15.15;10.88;;;14.00;99.90;;;;;;5053447;28;20516;-83
2022/10/08 02:38:00;;;;;;;14.90;10.90;;;14.00;99.90;;;;;;5053856;28;20028;-82
2022/10/08 02:40:29;;;;;;;15.63;11.20;;;14.00;99.90;;;;;;5053768;28;20036;-82
2022/10/08 02:43:00;;;;;;;14.52;10.68;;;14.10;99.90;;;;;;5053742;28;20071;-83
2022/10/08 02:45:40;;;;;;;15.68;11.27;;;14.10;99.90;;;;;;5053733;28;20028;-84
2022/10/08 02:48:13;;;;;;;17.10;11.48;;;14.10;99.90;;;;;;5053321;28;20093;-83
2022/10/08 02:50:43;;;;;;;17.17;10.55;;;14.10;99.90;;;;;;5053790;28;20488;-84
2022/10/08 02:53:13;;;;;;;13.98;10.90;;;14.10;99.90;;;;;;5052831;28;20078;-83
2022/10/08 02:55:56;;;;;;;15.13;11.73;;;14.10;99.90;;;;;;5053609;28;20036;-83
2022/10/08 02:58:23;;;;;;;15.23;11.25;;;14.10;99.90;;;;;;5052894;28;20036;-82
2022/10/08 03:01:25;;;;;;;17.35;11.80;;;14.00;99.90;;;;;;5053608;28;20039;-83
2022/10/08 03:03:59;;;;;;;17.95;11.70;;;14.10;99.90;;;;;;5053244;28;20025;-82
2022/10/08 03:06:26;;;;;;;18.45;12.30;;;14.00;99.90;;;;;;5052798;28;20029;-83
2022/10/08 03:08:55;;;;;;;18.67;12.70;;;14.00;99.90;;;;;;5052973;28;20029;-83
2022/10/08 03:11:22;;;;;;;19.02;11.98;;;13.90;99.90;;;;;;5052752;28;20399;-84
2022/10/08 03:13:49;;;;;;;17.52;12.48;;;13.90;99.90;;;;;;5053143;28;20025;-84
2022/10/08 03:16:19;;;;;;;18.38;12.60;;;13.90;99.90;;;;;;5052567;28;20374;-83
2022/10/08 03:18:46;;;;;;;20.60;12.98;;;13.90;99.90;;;;;;5053166;28;20190;-83
2022/10/08 03:21:13;;;;;;;24.90;14.52;;;13.80;99.90;;;;;;5052675;28;20039;-83
2022/10/08 03:23:39;;;;;;;18.92;14.05;;;13.80;99.90;;;;;;5052984;28;20037;-84
2022/10/08 03:26:04;;;;;;;19.63;13.63;;;13.80;99.90;;;;;;5052554;28;20036;-82
2022/10/08 03:28:30;;;;;;;23.10;13.98;;;13.80;99.90;;;;;;5052617;28;20031;-85
2022/10/08 03:30:56;;;;;;;19.52;14.23;;;13.80;99.90;;;;;;5051448;28;20028;-83
2022/10/08 03:33:21;;;;;;;21.90;13.90;;;13.80;99.90;;;;;;5052183;28;20111;-83
2022/10/08 03:35:47;;;;;;;21.38;14.93;;;13.80;99.90;;;;;;5052776;28;20372;-83
2022/10/08 03:38:17;;;;;;;23.45;15.40;;;13.80;99.90;;;;;;5052473;28;20059;-85
2022/10/08 03:40:52;;;;;;;25.90;16.05;;;13.80;99.90;;;;;;5052937;28;20035;-84
2022/10/08 03:43:18;;;;;;;27.52;15.23;;;13.90;99.90;;;;;;5052042;28;20103;-84
2022/10/08 03:45:53;;;;;;;29.67;16.83;;;13.90;99.90;;;;;;5052993;28;20117;-84
2022/10/08 03:48:20;;;;;;;27.75;16.92;;;13.90;99.90;;;;;;5052082;28;20033;-84
2022/10/08 03:51:12;;;;;;;28.13;17.65;;;13.90;99.90;;;;;;5052796;28;20032;-84
2022/10/08 03:53:40;;;;;;;29.17;16.63;;;13.90;99.90;;;;;;5052132;28;20465;-85
2022/10/08 03:56:12;;;;;;;26.83;17.25;;;13.90;99.90;;;;;;5052312;28;20032;-81
2022/10/08 03:58:37;;;;;;;22.88;15.82;;;13.90;99.90;;;;;;5052629;28;20059;-84
2022/10/08 04:01:15;;;;;;;25.95;15.98;;;13.90;99.90;;;;;;5052455;28;20116;-84
2022/10/08 04:03:41;;;;;;;26.73;16.75;;;13.90;99.90;;;;;;5052778;28;20033;-84
2022/10/08 04:06:07;;;;;;;22.60;14.90;;;13.80;99.90;;;;;;5052031;28;20465;-76
2022/10/08 04:08:33;;;;;;;22.55;14.02;;;13.90;99.90;;;;;;5052079;28;20531;-84
2022/10/08 04:11:08;;;;;;;24.10;14.50;;;13.90;99.90;;;;;;5052557;28;20027;-85
2022/10/08 04:13:35;;;;;;;28.42;16.35;;;14.00;99.90;;;;;;5052452;28;20033;-85
2022/10/08 04:16:06;;;;;;;26.80;16.25;;;14.00;99.90;;;;;;5052120;28;20029;-85
2022/10/08 04:18:32;;;;;;;25.95;15.32;;;14.00;99.90;;;;;;5052559;28;20037;-84
2022/10/08 04:20:59;;;;;;;26.33;15.43;;;14.00;99.90;;;;;;5052835;28;20441;-84
2022/10/08 04:23:25;;;;;;;25.13;15.15;;;14.10;99.90;;;;;;5052007;28;20048;-86
2022/10/08 04:25:52;;;;;;;26.35;14.95;;;14.20;99.90;;;;;;5052462;28;20366;-86
2022/10/08 04:28:18;;;;;;;28.77;15.10;;;14.20;99.90;;;;;;5052115;28;20036;-85
2022/10/08 04:31:06;;;;;;;29.67;15.43;;;14.30;99.90;;;;;;5052270;28;20025;-85
2022/10/08 04:33:33;;;;;;;28.83;15.73;;;14.30;99.90;;;;;;5051961;28;20056;-85
2022/10/08 04:36:00;;;;;;;25.52;13.95;;;14.30;99.90;;;;;;5052540;28;20029;-86
2022/10/08 04:38:26;;;;;;;28.50;14.52;;;14.40;99.90;;;;;;5051890;28;20056;-85
2022/10/08 04:41:05;;;;;;;28.52;15.30;;;14.40;99.90;;;;;;5052665;28;20040;-86
2022/10/08 04:43:32;;;;;;;27.15;14.63;;;14.40;99.90;;;;;;5051968;28;20028;-84
2022/10/08 04:45:58;;;;;;;23.67;14.15;;;14.40;99.90;;;;;;5052112;28;20422;-84
2022/10/08 04:48:24;;;;;;;20.17;13.55;;;14.50;99.90;;;;;;5051696;28;20091;-85
2022/10/08 04:50:54;;;;;;;24.80;14.80;;;14.50;99.90;;;;;;5052253;28;20021;-85
2022/10/08 04:53:20;;;;;;;24.85;14.48;;;14.50;99.90;;;;;;5051288;28;20026;-85
2022/10/08 04:55:45;;;;;;;23.02;13.77;;;14.50;99.90;;;;;;5055038;28;20029;-85
2022/10/08 04:58:11;;;;;;;25.65;14.95;;;14.50;99.90;;;;;;5055316;28;20420;-84
2022/10/08 05:00:37;;;;;;;21.25;14.07;;;14.50;99.90;;;;;;5055924;28;20539;-83
2022/10/08 05:03:02;;;;;;;21.02;13.23;;;14.50;99.90;;;;;;5056098;28;20079;-85
2022/10/08 05:05:28;;;;;;;22.80;14.05;;;14.50;99.90;;;;;;5055266;28;20032;-86
2022/10/08 05:07:55;;;;;;;23.42;14.02;;;14.50;99.90;;;;;;5055845;28;20039;-87
2022/10/08 05:10:22;;;;;;;25.48;14.63;;;14.50;99.90;;;;;;5055346;28;20106;-87
2022/10/08 05:12:48;;;;;;;23.50;14.18;;;14.50;99.90;;;;;;5055501;28;20017;-86
2022/10/08 05:15:14;;;;;;;23.98;14.32;;;14.60;99.90;;;;;;5055535;28;20032;-86
2022/10/08 05:17:40;;;;;;;23.00;13.63;;;14.60;99.90;;;;;;5055954;28;20025;-86
2022/10/08 05:20:06;;;;;;;24.25;14.07;;;14.50;99.90;;;;;;5055868;28;20039;-86
2022/10/08 05:22:31;;;;;;;21.75;13.35;;;14.60;99.90;;;;;;5055157;28;20024;-86
2022/10/08 05:24:57;;;;;;;25.67;15.30;;;14.60;99.90;;;;;;5055624;28;20468;-86
2022/10/08 05:27:23;;;;;;;23.40;14.23;;;14.60;99.90;;;;;;5055084;28;20029;-85
2022/10/08 05:29:48;;;;;;;22.70;12.88;;;14.60;99.90;;;;;;5055593;28;20086;-85
2022/10/08 05:32:14;;;;;;;25.55;15.50;;;14.60;99.90;;;;;;5054890;28;20045;-84
2022/10/08 05:34:40;;;;;;;26.30;14.27;;;14.60;99.90;;;;;;5055381;28;20047;-85
2022/10/08 05:37:05;;;;;;;25.90;13.60;;;14.60;99.90;;;;;;5055318;28;20112;-87
2022/10/08 05:39:31;;;;;;;24.25;13.70;;;14.60;99.90;;;;;;5053963;28;20464;-85
2022/10/08 05:41:56;;;;;;;21.38;13.65;;;14.60;99.90;;;;;;5055258;28;20108;-86
2022/10/08 05:44:22;;;;;;;21.98;14.27;;;14.60;99.90;;;;;;5054289;28;20029;-86
2022/10/08 05:46:48;;;;;;;25.60;14.13;;;14.50;99.90;;;;;;5055816;28;20029;-86
2022/10/08 05:49:19;;;;;;;23.92;14.70;;;14.50;99.90;;;;;;5055122;28;20036;-86
2022/10/08 05:51:46;;;;;;;24.25;15.43;;;14.50;99.90;;;;;;5055082;28;20448;-86
2022/10/08 05:54:11;;;;;;;23.13;14.27;;;14.50;99.90;;;;;;5054777;28;20104;-86
2022/10/08 05:56:37;;;;;;;24.45;14.32;;;14.60;99.90;;;;;;5055254;28;20487;-86
2022/10/08 05:59:03;;;;;;;28.50;16.65;;;14.60;99.90;;;;;;5054378;28;20135;-86
2022/10/08 06:01:30;;;;;;;34.95;17.13;;;14.60;99.90;;;;;;5054743;28;20025;-86
2022/10/08 06:04:02;;;;;;;30.05;16.27;;;14.70;99.90;;;;;;5055703;28;20480;-84
2022/10/08 06:06:28;;;;;;;29.80;15.63;;;14.70;99.90;;;;;;5054009;28;20033;-85
2022/10/08 06:08:57;;;;;;;29.33;16.00;;;14.70;99.90;;;;;;5055359;28;20036;-87
2022/10/08 06:11:26;;;;;;;29.77;16.67;;;14.80;99.90;;;;;;5054658;28;20021;-85
2022/10/08 06:13:53;;;;;;;32.25;17.15;;;14.80;99.90;;;;;;5052943;28;20029;-86
2022/10/08 06:16:19;;;;;;;32.85;16.15;;;14.90;99.90;;;;;;5053203;28;20110;-85
2022/10/08 06:18:44;;;;;;;31.90;16.73;;;14.90;99.90;;;;;;5054012;28;20064;-86
2022/10/08 06:21:13;;;;;;;32.58;17.65;;;14.90;99.90;;;;;;5054749;28;20033;-85
2022/10/08 06:23:43;;;;;;;33.70;16.60;;;14.90;99.90;;;;;;5054082;28;20067;-84
2022/10/08 06:26:09;;;;;;;34.33;17.63;;;14.90;99.90;;;;;;5054089;28;20039;-85
2022/10/08 06:28:37;;;;;;;31.58;16.35;;;14.90;99.90;;;;;;5053579;28;20037;-84
2022/10/08 06:31:04;;;;;;;33.42;16.80;;;15.00;99.90;;;;;;5054210;28;20041;-85
2022/10/08 06:33:30;;;;;;;30.40;17.15;;;14.90;99.90;;;;;;5053961;28;20021;-85
2022/10/08 06:35:56;;;;;;;27.85;15.13;;;15.00;99.90;;;;;;5054153;28;20032;-86
2022/10/08 06:38:22;;;;;;;26.95;15.05;;;15.00;99.90;;;;;;5053710;28;20021;-84
2022/10/08 06:40:47;;;;;;;28.50;15.45;;;15.00;99.90;;;;;;5053892;28;20032;-86
2022/10/08 06:43:16;;;;;;;28.75;15.98;;;15.00;99.90;;;;;;5053828;28;20159;-85
2022/10/08 06:45:43;;;;;;;31.65;15.90;;;15.00;99.90;;;;;;5053632;28;20032;-86
2022/10/08 06:48:10;;;;;;;30.75;15.82;;;15.00;99.90;;;;;;5053624;28;20043;-84
2022/10/08 06:50:36;;;;;;;30.35;16.45;;;15.10;99.90;;;;;;5053343;28;20017;-84
2022/10/08 06:53:03;;;;;;;29.20;15.88;;;15.10;99.90;;;;;;5054128;28;20029;-84
2022/10/08 06:55:31;;;;;;;34.70;16.95;;;15.10;99.90;;;;;;5053537;28;20067;-85
2022/10/08 06:57:56;;;;;;;37.25;18.35;;;15.10;99.90;;;;;;5053772;28;20033;-86
2022/10/08 07:00:22;;;;;;;30.58;16.48;;;15.10;99.90;;;;;;5053143;28;20033;-82
2022/10/08 07:02:48;;;;;;;34.10;16.70;;;15.10;99.90;;;;;;5053676;28;20111;-85
2022/10/08 07:05:14;;;;;;;26.88;16.13;;;15.10;99.90;;;;;;5053876;28;20028;-84
2022/10/08 07:07:39;;;;;;;35.13;17.90;;;15.10;99.90;;;;;;5053502;28;20025;-85
2022/10/08 07:10:05;;;;;;;30.45;16.33;;;15.10;99.90;;;;;;5052040;28;20029;-84
2022/10/08 07:12:31;;;;;;;39.22;17.95;;;15.20;99.90;;;;;;5052902;28;20033;-84
2022/10/08 07:14:58;;;;;;;34.05;17.13;;;15.20;99.90;;;;;;5053276;28;20025;-84
2022/10/08 07:17:27;;;;;;;30.90;16.73;;;15.20;99.90;;;;;;5052993;28;20053;-81
2022/10/08 07:19:53;;;;;;;31.35;17.05;;;15.20;99.90;;;;;;5033672;28;20078;-85
2022/10/08 07:22:19;;;;;;;28.15;16.75;;;15.20;99.90;;;;;;5045359;28;20025;-84
2022/10/08 07:24:44;;;;;;;27.95;16.42;;;15.20;99.90;;;;;;5053228;28;20036;-85
2022/10/08 07:27:11;;;;;;;34.55;18.17;;;15.20;99.90;;;;;;5053346;28;20061;-85
2022/10/08 07:29:37;;;;;;;33.70;17.00;;;15.20;99.90;;;;;;5052414;28;20373;-84
2022/10/08 07:32:02;;;;;;;30.42;16.60;;;15.30;99.90;;;;;;5052685;28;20067;-79
2022/10/08 07:34:28;;;;;;;30.17;16.73;;;15.30;99.90;;;;;;5052337;28;20028;-78
2022/10/08 07:36:54;;;;;;;26.55;15.95;;;15.30;99.90;;;;;;5052810;28;20029;-78
2022/10/08 07:39:20;;;;;;;31.52;15.48;;;15.30;99.90;;;;;;5052718;28;20041;-78
2022/10/08 07:41:46;;;;;;;28.92;15.25;;;15.40;99.90;;;;;;5052256;28;20025;-78
2022/10/08 07:44:13;;;;;;;27.73;16.55;;;15.40;99.90;;;;;;5052673;28;20053;-78
2022/10/08 07:46:49;;;;;;;33.28;15.05;;;15.40;99.90;;;;;;5052345;28;20193;-78
2022/10/08 07:49:18;;;;;;;29.38;15.95;;;15.40;99.90;;;;;;5052602;28;20060;-78
2022/10/08 07:51:45;;;;;;;33.10;16.58;;;15.40;99.90;;;;;;5052277;28;20060;-78
2022/10/08 07:54:14;;;;;;;29.00;16.30;;;15.40;99.90;;;;;;5052581;28;20036;-78
2022/10/08 07:56:39;;;;;;;27.52;16.13;;;15.40;99.90;;;;;;5051399;28;20473;-78
2022/10/08 07:59:05;;;;;;;34.78;16.63;;;15.40;99.90;;;;;;5052485;28;20025;-79
2022/10/08 08:01:32;;;;;;;31.45;16.05;;;15.40;99.90;;;;;;5052182;28;20021;-79
2022/10/08 08:04:01;;;;;;;30.23;16.27;;;15.40;99.90;;;;;;5052496;28;20036;-79
2022/10/08 08:06:28;;;;;;;31.35;15.55;;;15.40;99.90;;;;;;5052294;28;20108;-79
2022/10/08 08:08:54;;;;;;;26.00;17.08;;;15.40;99.90;;;;;;5052520;28;20140;-79
2022/10/08 08:11:22;;;;;;;26.58;16.08;;;15.40;99.90;;;;;;5052515;28;20059;-77
2022/10/08 08:13:48;;;;;;;33.60;16.00;;;15.50;99.90;;;;;;5052020;28;20369;-79
2022/10/08 08:16:17;;;;;;;26.20;15.02;;;15.60;99.90;;;;;;5052078;28;20025;-78
2022/10/08 08:18:45;;;;;;;30.45;16.58;;;15.60;99.90;;;;;;5051959;28;20090;-78
2022/10/08 08:21:13;;;;;;;26.48;14.07;;;15.60;99.90;;;;;;5052042;28;20025;-79
2022/10/08 08:23:42;;;;;;;35.65;17.85;;;15.70;99.90;;;;;;5051892;28;20544;-77
2022/10/08 08:26:12;;;;;;;30.73;16.45;;;15.80;99.90;;;;;;5052293;28;20036;-79
2022/10/08 08:28:38;;;;;;;32.15;15.32;;;15.90;99.90;;;;;;5051931;28;20067;-78
2022/10/08 08:31:14;;;;;;;26.65;15.93;;;16.10;99.90;;;;;;5055566;28;20072;-77
2022/10/08 08:33:41;;;;;;;29.42;15.40;;;16.30;99.90;;;;;;5055749;28;20020;-78
2022/10/08 08:36:07;;;;;;;28.17;15.00;;;16.40;99.90;;;;;;5056132;28;20021;-78
2022/10/08 08:38:37;;;;;;;27.95;15.60;;;16.50;99.90;;;;;;5055547;28;20128;-76
2022/10/08 08:41:44;;;;;;;28.15;14.88;;;16.70;99.90;;;;;;5055933;28;20036;-78
2022/10/08 08:44:21;;;;;;;25.55;14.98;;;16.80;99.90;;;;;;5055519;28;20052;-79
2022/10/08 08:47:01;;;;;;;29.33;15.18;;;16.90;99.90;;;;;;5055314;28;20052;-77
2022/10/08 08:49:31;;;;;;;27.42;14.85;;;17.10;99.90;;;;;;5055827;28;20029;-78
2022/10/08 08:51:58;;;;;;;26.95;14.23;;;17.20;99.90;;;;;;5055721;28;20029;-78
2022/10/08 08:54:24;;;;;;;26.58;14.35;;;17.30;99.90;;;;;;5055890;28;20086;-78
2022/10/08 08:56:52;;;;;;;22.23;13.15;;;17.50;99.90;;;;;;5055155;28;20025;-79
2022/10/08 08:59:33;;;;;;;23.38;14.52;;;17.70;99.90;;;;;;5055389;28;20394;-78
2022/10/08 09:02:08;;;;;;;23.98;13.23;;;17.90;99.90;;;;;;5055355;28;20033;-78
2022/10/08 09:04:49;;;;;;;21.98;12.90;;;18.10;99.90;;;;;;5055101;28;20104;-79
2022/10/08 09:07:20;;;;;;;22.45;13.25;;;18.40;99.90;;;;;;5055791;28;20071;-78
2022/10/08 09:09:54;;;;;;;27.00;14.48;;;18.50;99.90;;;;;;5054947;28;20036;-79
2022/10/08 09:12:44;;;;;;;20.75;12.80;;;18.70;99.90;;;;;;5055492;28;20055;-79
2022/10/08 09:15:19;;;;;;;21.73;12.13;;;18.90;99.90;;;;;;5055237;28;20021;-79
2022/10/08 09:17:48;;;;;;;20.52;11.20;;;19.10;99.90;;;;;;5055039;28;20025;-78
2022/10/08 09:20:16;;;;;;;21.83;12.63;;;19.30;99.90;;;;;;5055260;28;20125;-78
2022/10/08 09:22:44;;;;;;;17.45;11.35;;;19.40;98.60;;;;;;5055028;28;20033;-78
2022/10/08 09:25:15;;;;;;;20.02;11.25;;;19.60;97.40;;;;;;5055176;28;20474;-79
2022/10/08 09:27:53;;;;;;;18.05;11.43;;;19.70;97.30;;;;;;5054825;28;20031;-79
2022/10/08 09:30:36;;;;;;;16.60;10.35;;;19.90;96.20;;;;;;5055347;28;20338;-79
2022/10/08 09:33:17;;;;;;;18.77;11.32;;;20.10;95.00;;;;;;5055415;28;20049;-79
2022/10/08 09:35:48;;;;;;;17.25;11.07;;;20.30;95.20;;;;;;5054805;28;20029;-78
2022/10/08 09:38:21;;;;;;;18.30;10.38;;;20.40;92.60;;;;;;5055567;28;20035;-78
2022/10/08 09:40:59;;;;;;;17.88;9.93;;;20.60;92.80;;;;;;5053871;28;20040;-78
2022/10/08 09:43:25;;;;;;;19.88;10.40;;;20.70;92.90;;;;;;5055037;28;20040;-78
2022/10/08 09:45:53;;;;;;;19.75;10.52;;;20.70;92.90;;;;;;5054423;28;20025;-78
2022/10/08 09:48:27;;;;;;;23.67;12.90;;;20.70;92.10;;;;;;5054673;28;20033;-78
2022/10/08 09:50:53;;;;;;;17.25;10.73;;;20.70;91.30;;;;;;5053903;28;20055;-78
2022/10/08 09:53:19;;;;;;;19.60;10.60;;;20.70;92.60;;;;;;5054635;28;20484;-79
2022/10/08 09:55:56;;;;;;;17.55;11.02;;;20.70;91.10;;;;;;5054292;28;20120;-78
2022/10/08 09:58:23;;;;;;;18.13;10.35;;;20.60;91.10;;;;;;5054709;28;20033;-79
2022/10/08 10:01:03;;;;;;;17.52;11.02;;;20.50;90.40;;;;;;5054111;28;20025;-77
2022/10/08 10:03:30;;;;;;;16.17;10.75;;;20.40;90.70;;;;;;5054388;28;20032;-80
2022/10/08 10:05:58;;;;;;;16.90;10.80;;;20.30;91.10;;;;;;5053959;28;20032;-78
2022/10/08 10:08:51;;;;;;;19.77;10.55;;;20.30;91.60;;;;;;5054355;28;20504;-79
2022/10/08 10:11:23;;;;;;;17.05;10.25;;;20.30;91.80;;;;;;5054197;28;20021;-78
2022/10/08 10:13:50;;;;;;;16.70;10.40;;;20.30;92.00;;;;;;5053847;28;20063;-78
2022/10/08 10:16:41;;;;;;;19.42;10.88;;;20.40;92.20;;;;;;5054358;28;20412;-77
2022/10/08 10:19:18;;;;;;;18.40;10.23;;;20.50;91.50;;;;;;5054067;28;20068;-78
2022/10/08 10:21:58;;;;;;;17.42;10.80;;;20.60;91.80;;;;;;5055037;28;20105;-79
2022/10/08 10:24:53;;;;;;;17.75;10.98;;;20.80;91.00;;;;;;5056142;28;20036;-78
2022/10/08 10:27:21;;;;;;;19.27;10.80;;;20.80;91.10;;;;;;5055537;28;20449;-78
2022/10/08 10:29:53;;;;;;;17.58;11.10;;;20.90;91.10;;;;;;5054764;28;20024;-79
2022/10/08 10:32:32;;;;;;;18.73;12.18;;;21.10;89.40;;;;;;5056596;28;20045;-78
2022/10/08 10:35:22;;;;;;;18.73;11.55;;;21.10;89.80;;;;;;5054579;28;20028;-79
2022/10/08 10:37:55;;;;;;;18.58;11.27;;;21.20;90.20;;;;;;5053485;28;20099;-78
2022/10/08 10:40:38;;;;;;;20.88;11.88;;;21.30;87.30;;;;;;5053721;28;20078;-79
2022/10/08 10:43:23;;;;;;;19.55;11.60;;;21.30;87.50;;;;;;5054024;28;20477;-77
2022/10/08 10:45:59;;;;;;;22.48;13.75;;;21.40;88.00;;;;;;5053805;28;20033;-80
2022/10/08 10:48:24;;;;;;;23.17;13.48;;;21.40;86.10;;;;;;5053617;28;20028;-78
2022/10/08 10:50:59;;;;;;;25.88;13.32;;;21.50;88.10;;;;;;5052952;28;20027;-79
2022/10/08 10:54:10;;;;;;;24.27;13.30;;;21.60;87.40;;;;;;5053154;28;20199;-78
2022/10/08 10:56:41;;;;;;;22.63;14.43;;;21.70;86.10;;;;;;5050347;28;20037;-79
2022/10/08 10:59:18;;;;;;;;;;;21.90;84.30;;;;;;5053702;28;20289;-78
2022/10/08 11:02:08;;;;;;;34.15;15.05;;;22.00;83.50;;;;;;5052793;28;19911;-79
2022/10/08 11:04:50;;;;;;;22.35;13.27;;;22.10;82.50;;;;;;5054259;28;20100;-85
2022/10/08 11:07:31;;;;;;;22.75;13.40;;;22.10;83.30;;;;;;5053390;28;20533;-83
2022/10/08 11:10:00;;;;;;;23.23;13.52;;;22.20;82.40;;;;;;5053104;28;20033;-85
2022/10/08 11:12:34;;;;;;;18.63;12.40;;;22.30;81.00;;;;;;5054176;28;20029;-84
2022/10/08 11:15:34;;;;;;;17.38;11.93;;;22.40;79.90;;;;;;5055293;28;20025;-84
2022/10/08 11:18:35;;;;;;;23.25;12.95;;;22.30;79.50;;;;;;5053278;28;20106;-85
2022/10/08 11:21:10;;;;;;;;;;;22.40;80.80;;;;;;5053495;28;20044;-73
2022/10/08 11:23:51;;;;;;;22.42;12.20;;;22.50;81.30;;;;;;5053182;28;20273;-75
2022/10/08 11:26:49;;;;;;;21.35;12.95;;;22.60;80.40;;;;;;5052763;28;20036;-74
2022/10/08 11:29:42;;;;;;;26.10;13.07;;;22.60;77.70;;;;;;5046549;28;20044;-75
2022/10/08 11:32:12;;;;;;;19.10;12.10;;;22.70;78.20;;;;;;5052835;28;20045;-75
2022/10/08 11:34:51;;;;;;;26.52;12.80;;;22.80;78.20;;;;;;5052765;28;20436;-75
2022/10/08 11:37:31;;;;;;;22.40;11.57;;;22.80;77.70;;;;;;5052539;28;20094;-75
2022/10/08 11:40:03;;;;;;;21.55;12.77;;;22.80;76.80;;;;;;5051585;28;20040;-75
2022/10/08 11:42:38;;;;;;;24.02;12.27;;;22.90;77.30;;;;;;5052501;28;20032;-76
2022/10/08 11:45:22;;;;;;;25.77;12.98;;;22.90;77.00;;;;;;5052027;28;20033;-75
2022/10/08 11:47:52;;;;;;;25.13;13.70;;;22.90;77.00;;;;;;5051634;28;20025;-77
2022/10/08 11:50:26;;;;;;;23.23;13.00;;;23.00;77.00;;;;;;5052019;28;20069;-76
2022/10/08 11:52:56;;;;;;;24.35;11.88;;;23.00;76.50;;;;;;5051668;28;20104;-75
2022/10/08 11:55:31;;;;;;;18.55;10.57;;;23.00;76.60;;;;;;5051806;28;20461;-75
2022/10/08 11:58:15;;;;;;;22.92;11.13;;;23.10;75.50;;;;;;5050811;28;20021;-75
2022/10/08 12:00:44;;;;;;;16.40;10.43;;;23.10;74.70;;;;;;5051072;28;20493;-75
2022/10/08 12:03:30;;;;;;;21.83;12.55;;;23.20;74.70;;;;;;5051287;28;20059;-74
2022/10/08 12:05:59;;;;;;;18.08;12.18;;;23.20;74.80;;;;;;5050115;28;20025;-75
2022/10/08 12:08:47;;;;;;;35.42;16.50;;;23.10;74.30;;;;;;5050806;28;20025;-74
2022/10/08 12:11:31;;;;;;;20.60;11.18;;;23.10;74.00;;;;;;5050772;28;20036;-75
2022/10/08 12:14:12;;;;;;;22.67;12.35;;;23.10;73.70;;;;;;5050310;28;20028;-75
2022/10/08 12:16:57;;;;;;;;;;;23.00;73.90;;;;;;5050980;28;20052;-74
2022/10/08 12:19:32;;;;;;;18.02;12.02;;;23.10;74.60;;;;;;5052947;28;19913;-75
2022/10/08 12:22:02;;;;;;;17.40;11.65;;;23.00;74.00;;;;;;5050200;28;20476;-75
2022/10/08 12:24:36;;;;;;;21.92;12.20;;;23.00;74.10;;;;;;5050986;28;20025;-74
2022/10/08 12:27:20;;;;;;;22.10;11.88;;;23.00;74.00;;;;;;5049956;28;20075;-76
2022/10/08 12:30:13;;;;;;;23.88;13.50;;;22.90;73.20;;;;;;5050301;28;20044;-76
2022/10/08 12:32:38;;;;;;;23.38;12.63;;;22.70;74.40;;;;;;5048775;28;20041;-74
2022/10/08 12:35:15;;;;;;;20.73;9.82;;;22.60;74.50;;;;;;5049797;28;20021;-75
2022/10/08 12:37:55;;;;;;;21.10;12.18;;;22.60;75.10;;;;;;5050384;28;20032;-74
2022/10/08 12:40:39;;;;;;;18.55;11.48;;;22.60;75.60;;;;;;5050518;28;20077;-75
2022/10/08 12:43:35;;;;;;;20.77;11.90;;;22.60;75.70;;;;;;5049559;28;20112;-74
2022/10/08 12:46:21;;;;;;;19.27;11.52;;;22.50;75.30;;;;;;5049637;28;20025;-75
2022/10/08 12:48:50;;;;;;;19.65;12.27;;;22.40;75.20;;;;;;5049981;28;20025;-76
2022/10/08 12:51:43;;;;;;;18.60;11.63;;;22.30;75.70;;;;;;5048781;28;20028;-75
2022/10/08 12:54:21;;;;;;;16.67;11.30;;;22.30;75.50;;;;;;5048201;28;20032;-76
2022/10/08 12:56:49;;;;;;;25.52;11.60;;;22.30;76.60;;;;;;5050002;28;20482;-76